sensor_id;sensor_type;location;lat;lon;timestamp;P1;durP1;ratioP1;P2;durP2;ratioP2
4089;SDS011;2059;48.538;12.146;2024-03-23T00:55:09;16.20;;;14.60;;
4089;SDS011;2059;48.538;12.146;2024-03-23T01:00:12;13.73;;;12.33;;
4089;SDS011;2059;48.538;12.146;2024-03-23T01:05:14;12.90;;;11.90;;
4089;SDS011;2059;48.538;12.146;2024-03-23T01:10:17;13.03;;;12.03;;
4089;SDS011;2059;48.538;12.146;2024-03-23T01:15:19;12.43;;;11.40;;
4089;SDS011;2059;48.538;12.146;2024-03-23T01:20:21;13.20;;;12.00;;
4089;SDS011;2059;48.538;12.146;2024-03-23T01:25:24;12.70;;;11.80;;
4089;SDS011;2059;48.538;12.146;2024-03-23T01:30:26;13.13;;;11.73;;
4089;SDS011;2059;48.538;12.146;2024-03-23T01:35:28;12.40;;;11.40;;
4089;SDS011;2059;48.538;12.146;2024-03-23T01:40:31;13.47;;;11.20;;
4089;SDS011;2059;48.538;12.146;2024-03-23T01:45:32;11.87;;;10.93;;
4089;SDS011;2059;48.538;12.146;2024-03-23T01:50:34;11.60;;;10.80;;
4089;SDS011;2059;48.538;12.146;2024-03-23T01:55:37;12.10;;;11.30;;
4089;SDS011;2059;48.538;12.146;2024-03-23T02:00:40;12.10;;;11.23;;
4089;SDS011;2059;48.538;12.146;2024-03-23T02:05:41;12.77;;;11.73;;
4089;SDS011;2059;48.538;12.146;2024-03-23T02:10:44;12.63;;;11.43;;
4089;SDS011;2059;48.538;12.146;2024-03-23T02:15:46;11.57;;;10.77;;
4089;SDS011;2059;48.538;12.146;2024-03-23T02:20:48;11.67;;;10.87;;
4089;SDS011;2059;48.538;12.146;2024-03-23T02:25:51;11.13;;;10.23;;
4089;SDS011;2059;48.538;12.146;2024-03-23T02:30:54;11.67;;;10.80;;
4089;SDS011;2059;48.538;12.146;2024-03-23T02:35:56;10.97;;;10.10;;
4089;SDS011;2059;48.538;12.146;2024-03-23T02:41:02;11.63;;;10.40;;
4089;SDS011;2059;48.538;12.146;2024-03-23T02:46:04;10.87;;;10.07;;
4089;SDS011;2059;48.538;12.146;2024-03-23T02:51:06;12.03;;;11.10;;
4089;SDS011;2059;48.538;12.146;2024-03-23T02:56:09;12.47;;;11.37;;
4089;SDS011;2059;48.538;12.146;2024-03-23T03:01:15;12.47;;;11.43;;
4089;SDS011;2059;48.538;12.146;2024-03-23T03:06:22;12.47;;;11.17;;
4089;SDS011;2059;48.538;12.146;2024-03-23T03:11:26;12.20;;;11.20;;
4089;SDS011;2059;48.538;12.146;2024-03-23T03:16:27;11.37;;;10.43;;
4089;SDS011;2059;48.538;12.146;2024-03-23T03:21:29;11.43;;;10.43;;
4089;SDS011;2059;48.538;12.146;2024-03-23T03:26:32;10.63;;;9.83;;
4089;SDS011;2059;48.538;12.146;2024-03-23T03:31:34;10.73;;;9.80;;
4089;SDS011;2059;48.538;12.146;2024-03-23T03:36:36;12.20;;;11.30;;
4089;SDS011;2059;48.538;12.146;2024-03-23T03:41:39;11.70;;;10.90;;
4089;SDS011;2059;48.538;12.146;2024-03-23T03:46:41;13.30;;;10.97;;
4089;SDS011;2059;48.538;12.146;2024-03-23T03:51:42;12.10;;;11.00;;
4089;SDS011;2059;48.538;12.146;2024-03-23T03:56:46;12.63;;;11.47;;
4089;SDS011;2059;48.538;12.146;2024-03-23T04:01:47;11.60;;;10.60;;
4089;SDS011;2059;48.538;12.146;2024-03-23T04:06:49;10.90;;;9.90;;
4089;SDS011;2059;48.538;12.146;2024-03-23T04:11:52;10.83;;;9.93;;
4089;SDS011;2059;48.538;12.146;2024-03-23T04:16:54;10.03;;;9.07;;
4089;SDS011;2059;48.538;12.146;2024-03-23T04:21:56;9.73;;;8.93;;
4089;SDS011;2059;48.538;12.146;2024-03-23T04:26:59;9.90;;;9.20;;
4089;SDS011;2059;48.538;12.146;2024-03-23T04:32:00;9.90;;;9.00;;
4089;SDS011;2059;48.538;12.146;2024-03-23T04:37:02;10.60;;;9.50;;
4089;SDS011;2059;48.538;12.146;2024-03-23T04:42:06;9.60;;;8.90;;
4089;SDS011;2059;48.538;12.146;2024-03-23T04:47:08;10.07;;;9.17;;
4089;SDS011;2059;48.538;12.146;2024-03-23T04:52:09;10.20;;;9.50;;
4089;SDS011;2059;48.538;12.146;2024-03-23T04:57:13;12.63;;;9.37;;
4089;SDS011;2059;48.538;12.146;2024-03-23T05:02:16;10.53;;;9.50;;
4089;SDS011;2059;48.538;12.146;2024-03-23T05:07:18;10.70;;;9.43;;
4089;SDS011;2059;48.538;12.146;2024-03-23T05:12:21;10.00;;;9.30;;
4089;SDS011;2059;48.538;12.146;2024-03-23T05:17:23;12.87;;;8.90;;
4089;SDS011;2059;48.538;12.146;2024-03-23T05:22:25;9.53;;;8.93;;
4089;SDS011;2059;48.538;12.146;2024-03-23T05:27:28;10.60;;;9.70;;
4089;SDS011;2059;48.538;12.146;2024-03-23T05:32:30;10.90;;;10.00;;
4089;SDS011;2059;48.538;12.146;2024-03-23T05:37:32;10.73;;;9.97;;
4089;SDS011;2059;48.538;12.146;2024-03-23T05:42:35;10.20;;;9.47;;
4089;SDS011;2059;48.538;12.146;2024-03-23T05:47:37;10.60;;;9.90;;
4089;SDS011;2059;48.538;12.146;2024-03-23T05:52:39;11.00;;;9.90;;
4089;SDS011;2059;48.538;12.146;2024-03-23T05:57:45;9.80;;;8.80;;
4089;SDS011;2059;48.538;12.146;2024-03-23T06:02:47;10.30;;;9.53;;
4089;SDS011;2059;48.538;12.146;2024-03-23T06:07:48;10.77;;;9.90;;
4089;SDS011;2059;48.538;12.146;2024-03-23T06:12:52;10.70;;;9.70;;
4089;SDS011;2059;48.538;12.146;2024-03-23T06:17:54;12.73;;;11.43;;
4089;SDS011;2059;48.538;12.146;2024-03-23T06:22:56;10.33;;;9.63;;
4089;SDS011;2059;48.538;12.146;2024-03-23T06:27:59;16.27;;;14.77;;
4089;SDS011;2059;48.538;12.146;2024-03-23T06:33:01;12.53;;;11.53;;
4089;SDS011;2059;48.538;12.146;2024-03-23T06:38:03;10.73;;;9.93;;
4089;SDS011;2059;48.538;12.146;2024-03-23T06:43:06;9.73;;;9.13;;
4089;SDS011;2059;48.538;12.146;2024-03-23T06:48:08;10.27;;;9.40;;
4089;SDS011;2059;48.538;12.146;2024-03-23T06:53:10;10.37;;;9.67;;
4089;SDS011;2059;48.538;12.146;2024-03-23T06:58:13;11.10;;;10.40;;
4089;SDS011;2059;48.538;12.146;2024-03-23T07:03:16;11.53;;;10.73;;
4089;SDS011;2059;48.538;12.146;2024-03-23T07:08:18;9.87;;;9.20;;
4089;SDS011;2059;48.538;12.146;2024-03-23T07:13:23;9.10;;;8.53;;
4089;SDS011;2059;48.538;12.146;2024-03-23T07:18:25;8.93;;;8.33;;
4089;SDS011;2059;48.538;12.146;2024-03-23T07:23:27;10.13;;;8.80;;
4089;SDS011;2059;48.538;12.146;2024-03-23T07:28:30;8.80;;;8.10;;
4089;SDS011;2059;48.538;12.146;2024-03-23T07:33:34;10.23;;;9.53;;
4089;SDS011;2059;48.538;12.146;2024-03-23T07:38:37;8.80;;;8.20;;
4089;SDS011;2059;48.538;12.146;2024-03-23T07:43:42;8.60;;;7.90;;
4089;SDS011;2059;48.538;12.146;2024-03-23T07:48:44;9.17;;;8.57;;
4089;SDS011;2059;48.538;12.146;2024-03-23T07:53:47;9.53;;;8.80;;
4089;SDS011;2059;48.538;12.146;2024-03-23T07:58:50;9.00;;;8.40;;
4089;SDS011;2059;48.538;12.146;2024-03-23T08:03:52;9.77;;;8.77;;
4089;SDS011;2059;48.538;12.146;2024-03-23T08:08:54;9.33;;;8.83;;
4089;SDS011;2059;48.538;12.146;2024-03-23T08:14:01;9.50;;;8.93;;
4089;SDS011;2059;48.538;12.146;2024-03-23T08:19:04;11.57;;;10.47;;
4089;SDS011;2059;48.538;12.146;2024-03-23T08:24:08;10.37;;;9.47;;
4089;SDS011;2059;48.538;12.146;2024-03-23T08:29:11;10.47;;;9.77;;
4089;SDS011;2059;48.538;12.146;2024-03-23T08:34:13;10.00;;;9.10;;
4089;SDS011;2059;48.538;12.146;2024-03-23T08:39:15;9.20;;;8.50;;
4089;SDS011;2059;48.538;12.146;2024-03-23T08:44:18;8.30;;;7.80;;
4089;SDS011;2059;48.538;12.146;2024-03-23T08:49:20;9.20;;;8.40;;
4089;SDS011;2059;48.538;12.146;2024-03-23T08:54:22;7.80;;;7.30;;
4089;SDS011;2059;48.538;12.146;2024-03-23T08:59:25;7.13;;;6.70;;
4089;SDS011;2059;48.538;12.146;2024-03-23T09:04:27;7.90;;;7.30;;
4089;SDS011;2059;48.538;12.146;2024-03-23T09:09:28;7.20;;;6.70;;
4089;SDS011;2059;48.538;12.146;2024-03-23T09:14:32;6.50;;;6.10;;
4089;SDS011;2059;48.538;12.146;2024-03-23T09:19:34;7.00;;;6.50;;
4089;SDS011;2059;48.538;12.146;2024-03-23T09:24:35;6.73;;;6.30;;
4089;SDS011;2059;48.538;12.146;2024-03-23T09:29:39;8.53;;;6.50;;
4089;SDS011;2059;48.538;12.146;2024-03-23T09:34:40;7.00;;;6.60;;
4089;SDS011;2059;48.538;12.146;2024-03-23T09:39:42;7.00;;;6.60;;
4089;SDS011;2059;48.538;12.146;2024-03-23T09:44:46;7.60;;;7.00;;
4089;SDS011;2059;48.538;12.146;2024-03-23T09:49:51;6.87;;;6.47;;
4089;SDS011;2059;48.538;12.146;2024-03-23T09:54:53;7.50;;;7.00;;
4089;SDS011;2059;48.538;12.146;2024-03-23T09:59:56;7.10;;;6.70;;
4089;SDS011;2059;48.538;12.146;2024-03-23T10:04:58;6.90;;;6.50;;
4089;SDS011;2059;48.538;12.146;2024-03-23T10:10:00;7.03;;;6.70;;
4089;SDS011;2059;48.538;12.146;2024-03-23T10:15:17;7.17;;;6.70;;
4089;SDS011;2059;48.538;12.146;2024-03-23T10:20:20;7.23;;;6.73;;
4089;SDS011;2059;48.538;12.146;2024-03-23T10:25:23;7.20;;;6.90;;
4089;SDS011;2059;48.538;12.146;2024-03-23T10:30:26;8.17;;;7.33;;
4089;SDS011;2059;48.538;12.146;2024-03-23T10:35:28;8.80;;;6.80;;
4089;SDS011;2059;48.538;12.146;2024-03-23T10:40:30;6.90;;;6.60;;
4089;SDS011;2059;48.538;12.146;2024-03-23T10:45:33;6.27;;;5.97;;
4089;SDS011;2059;48.538;12.146;2024-03-23T10:50:34;6.03;;;5.83;;
4089;SDS011;2059;48.538;12.146;2024-03-23T10:55:36;5.70;;;5.50;;
4089;SDS011;2059;48.538;12.146;2024-03-23T11:00:40;5.97;;;5.57;;
4089;SDS011;2059;48.538;12.146;2024-03-23T11:05:44;6.17;;;5.93;;
4089;SDS011;2059;48.538;12.146;2024-03-23T11:10:47;6.10;;;5.80;;
4089;SDS011;2059;48.538;12.146;2024-03-23T11:15:51;6.07;;;5.83;;
4089;SDS011;2059;48.538;12.146;2024-03-23T11:20:53;6.60;;;6.30;;
4089;SDS011;2059;48.538;12.146;2024-03-23T11:25:55;7.07;;;6.77;;
4089;SDS011;2059;48.538;12.146;2024-03-23T11:30:58;7.43;;;7.13;;
4089;SDS011;2059;48.538;12.146;2024-03-23T11:36:00;7.60;;;7.30;;
4089;SDS011;2059;48.538;12.146;2024-03-23T11:41:02;7.60;;;7.30;;
4089;SDS011;2059;48.538;12.146;2024-03-23T11:46:05;8.13;;;7.73;;
4089;SDS011;2059;48.538;12.146;2024-03-23T11:51:08;7.57;;;7.17;;
4089;SDS011;2059;48.538;12.146;2024-03-23T11:56:11;7.10;;;6.80;;
4089;SDS011;2059;48.538;12.146;2024-03-23T12:01:14;7.50;;;7.10;;
4089;SDS011;2059;48.538;12.146;2024-03-23T12:06:19;7.60;;;7.20;;
4089;SDS011;2059;48.538;12.146;2024-03-23T12:11:21;7.20;;;6.90;;
4089;SDS011;2059;48.538;12.146;2024-03-23T12:16:34;7.90;;;7.50;;
4089;SDS011;2059;48.538;12.146;2024-03-23T12:21:36;7.67;;;7.27;;
4089;SDS011;2059;48.538;12.146;2024-03-23T12:26:37;8.40;;;7.80;;
4089;SDS011;2059;48.538;12.146;2024-03-23T12:31:41;7.80;;;7.40;;
4089;SDS011;2059;48.538;12.146;2024-03-23T12:36:43;8.93;;;8.20;;
4089;SDS011;2059;48.538;12.146;2024-03-23T12:41:44;8.63;;;8.13;;
4089;SDS011;2059;48.538;12.146;2024-03-23T12:46:47;8.30;;;7.80;;
4089;SDS011;2059;48.538;12.146;2024-03-23T12:51:53;8.70;;;8.10;;
4089;SDS011;2059;48.538;12.146;2024-03-23T12:56:55;9.10;;;8.50;;
4089;SDS011;2059;48.538;12.146;2024-03-23T13:01:58;9.90;;;9.30;;
4089;SDS011;2059;48.538;12.146;2024-03-23T13:07:00;8.73;;;8.13;;
4089;SDS011;2059;48.538;12.146;2024-03-23T13:12:02;8.83;;;8.33;;
4089;SDS011;2059;48.538;12.146;2024-03-23T13:17:05;8.70;;;8.10;;
4089;SDS011;2059;48.538;12.146;2024-03-23T13:22:07;8.60;;;8.10;;
4089;SDS011;2059;48.538;12.146;2024-03-23T13:27:11;8.70;;;8.00;;
4089;SDS011;2059;48.538;12.146;2024-03-23T13:32:14;8.80;;;8.20;;
4089;SDS011;2059;48.538;12.146;2024-03-23T13:37:17;8.07;;;7.67;;
4089;SDS011;2059;48.538;12.146;2024-03-23T13:42:18;8.30;;;7.80;;
4089;SDS011;2059;48.538;12.146;2024-03-23T13:47:21;8.50;;;8.00;;
4089;SDS011;2059;48.538;12.146;2024-03-23T13:52:23;8.70;;;8.10;;
4089;SDS011;2059;48.538;12.146;2024-03-23T13:57:26;9.00;;;8.40;;
4089;SDS011;2059;48.538;12.146;2024-03-23T14:02:29;9.53;;;8.83;;
4089;SDS011;2059;48.538;12.146;2024-03-23T14:07:31;9.43;;;8.60;;
4089;SDS011;2059;48.538;12.146;2024-03-23T14:12:33;9.90;;;9.20;;
4089;SDS011;2059;48.538;12.146;2024-03-23T14:17:36;10.73;;;9.70;;
4089;SDS011;2059;48.538;12.146;2024-03-23T14:22:38;9.90;;;9.27;;
4089;SDS011;2059;48.538;12.146;2024-03-23T14:27:43;10.87;;;9.97;;
4089;SDS011;2059;48.538;12.146;2024-03-23T14:32:46;10.27;;;9.47;;
4089;SDS011;2059;48.538;12.146;2024-03-23T14:37:49;9.53;;;8.83;;
4089;SDS011;2059;48.538;12.146;2024-03-23T14:42:50;10.67;;;9.60;;
4089;SDS011;2059;48.538;12.146;2024-03-23T14:47:53;9.60;;;9.00;;
4089;SDS011;2059;48.538;12.146;2024-03-23T14:52:55;9.77;;;9.17;;
4089;SDS011;2059;48.538;12.146;2024-03-23T14:57:57;9.97;;;9.17;;
4089;SDS011;2059;48.538;12.146;2024-03-23T15:03:00;9.43;;;8.63;;
4089;SDS011;2059;48.538;12.146;2024-03-23T15:08:02;11.00;;;10.00;;
4089;SDS011;2059;48.538;12.146;2024-03-23T15:13:05;10.00;;;9.20;;
4089;SDS011;2059;48.538;12.146;2024-03-23T15:18:08;10.57;;;9.57;;
4089;SDS011;2059;48.538;12.146;2024-03-23T15:23:09;12.13;;;10.30;;
4089;SDS011;2059;48.538;12.146;2024-03-23T15:28:11;10.50;;;9.70;;
4089;SDS011;2059;48.538;12.146;2024-03-23T15:33:15;9.97;;;9.17;;
4089;SDS011;2059;48.538;12.146;2024-03-23T15:38:17;10.30;;;9.30;;
4089;SDS011;2059;48.538;12.146;2024-03-23T15:43:19;13.07;;;10.50;;
4089;SDS011;2059;48.538;12.146;2024-03-23T15:48:22;9.20;;;8.30;;
4089;SDS011;2059;48.538;12.146;2024-03-23T15:53:24;10.33;;;9.40;;
4089;SDS011;2059;48.538;12.146;2024-03-23T15:58:28;10.03;;;9.27;;
4089;SDS011;2059;48.538;12.146;2024-03-23T16:03:32;8.87;;;8.27;;
4089;SDS011;2059;48.538;12.146;2024-03-23T16:08:35;8.20;;;7.67;;
4089;SDS011;2059;48.538;12.146;2024-03-23T16:13:37;10.27;;;8.90;;
4089;SDS011;2059;48.538;12.146;2024-03-23T16:18:42;8.50;;;7.80;;
4089;SDS011;2059;48.538;12.146;2024-03-23T16:23:45;8.30;;;7.80;;
4089;SDS011;2059;48.538;12.146;2024-03-23T16:28:47;8.80;;;8.00;;
4089;SDS011;2059;48.538;12.146;2024-03-23T16:33:50;8.50;;;7.80;;
4089;SDS011;2059;48.538;12.146;2024-03-23T16:38:52;8.57;;;7.97;;
4089;SDS011;2059;48.538;12.146;2024-03-23T16:43:54;8.83;;;8.33;;
4089;SDS011;2059;48.538;12.146;2024-03-23T16:48:58;9.10;;;8.10;;
4089;SDS011;2059;48.538;12.146;2024-03-23T16:54:01;8.53;;;7.73;;
4089;SDS011;2059;48.538;12.146;2024-03-23T16:59:03;9.53;;;8.17;;
4089;SDS011;2059;48.538;12.146;2024-03-23T17:04:06;9.43;;;8.50;;
4089;SDS011;2059;48.538;12.146;2024-03-23T17:09:08;8.90;;;8.00;;
4089;SDS011;2059;48.538;12.146;2024-03-23T17:14:10;8.70;;;7.77;;
4089;SDS011;2059;48.538;12.146;2024-03-23T17:19:16;6.70;;;6.20;;
4089;SDS011;2059;48.538;12.146;2024-03-23T17:24:18;4.97;;;4.57;;
4089;SDS011;2059;48.538;12.146;2024-03-23T17:29:19;7.20;;;6.80;;
4089;SDS011;2059;48.538;12.146;2024-03-23T17:34:23;8.23;;;7.50;;
4089;SDS011;2059;48.538;12.146;2024-03-23T17:39:25;7.70;;;7.30;;
4089;SDS011;2059;48.538;12.146;2024-03-23T17:44:27;8.30;;;7.60;;
4089;SDS011;2059;48.538;12.146;2024-03-23T17:49:30;7.70;;;7.20;;
4089;SDS011;2059;48.538;12.146;2024-03-23T17:54:32;7.93;;;7.43;;
4089;SDS011;2059;48.538;12.146;2024-03-23T17:59:33;6.87;;;6.23;;
4089;SDS011;2059;48.538;12.146;2024-03-23T18:04:36;4.50;;;4.13;;
4089;SDS011;2059;48.538;12.146;2024-03-23T18:09:38;4.60;;;4.20;;
4089;SDS011;2059;48.538;12.146;2024-03-23T18:14:40;5.30;;;4.83;;
4089;SDS011;2059;48.538;12.146;2024-03-23T18:19:43;5.77;;;5.33;;
4089;SDS011;2059;48.538;12.146;2024-03-23T18:24:45;4.67;;;4.37;;
4089;SDS011;2059;48.538;12.146;2024-03-23T18:29:46;5.40;;;5.10;;
4089;SDS011;2059;48.538;12.146;2024-03-23T18:34:49;8.20;;;7.67;;
4089;SDS011;2059;48.538;12.146;2024-03-23T18:39:51;7.90;;;7.30;;
4089;SDS011;2059;48.538;12.146;2024-03-23T18:44:53;8.00;;;7.40;;
4089;SDS011;2059;48.538;12.146;2024-03-23T18:49:56;8.80;;;8.10;;
4089;SDS011;2059;48.538;12.146;2024-03-23T18:54:57;5.40;;;4.90;;
4089;SDS011;2059;48.538;12.146;2024-03-23T18:59:59;5.10;;;4.70;;
4089;SDS011;2059;48.538;12.146;2024-03-23T19:05:02;5.30;;;4.90;;
4089;SDS011;2059;48.538;12.146;2024-03-23T19:10:05;6.30;;;5.17;;
4089;SDS011;2059;48.538;12.146;2024-03-23T19:15:07;5.70;;;5.30;;
4089;SDS011;2059;48.538;12.146;2024-03-23T19:20:11;5.67;;;5.13;;
4089;SDS011;2059;48.538;12.146;2024-03-23T19:25:14;7.10;;;5.17;;
4089;SDS011;2059;48.538;12.146;2024-03-23T19:30:16;5.90;;;5.50;;
4089;SDS011;2059;48.538;12.146;2024-03-23T19:35:19;6.83;;;6.30;;
4089;SDS011;2059;48.538;12.146;2024-03-23T19:40:20;6.70;;;6.20;;
4089;SDS011;2059;48.538;12.146;2024-03-23T19:45:22;8.13;;;7.43;;
4089;SDS011;2059;48.538;12.146;2024-03-23T19:50:25;10.43;;;9.43;;
4089;SDS011;2059;48.538;12.146;2024-03-23T19:55:27;9.00;;;8.20;;
4089;SDS011;2059;48.538;12.146;2024-03-23T20:00:29;9.43;;;6.87;;
4089;SDS011;2059;48.538;12.146;2024-03-23T20:05:32;6.50;;;5.90;;
4089;SDS011;2059;48.538;12.146;2024-03-23T20:10:34;7.87;;;7.07;;
4089;SDS011;2059;48.538;12.146;2024-03-23T20:15:36;6.77;;;6.00;;
4089;SDS011;2059;48.538;12.146;2024-03-23T20:20:39;12.50;;;6.87;;
4089;SDS011;2059;48.538;12.146;2024-03-23T20:25:40;8.77;;;8.00;;
4089;SDS011;2059;48.538;12.146;2024-03-23T20:30:54;8.20;;;5.20;;
4089;SDS011;2059;48.538;12.146;2024-03-23T20:35:58;6.10;;;5.50;;
4089;SDS011;2059;48.538;12.146;2024-03-23T20:40:59;4.20;;;3.90;;
4089;SDS011;2059;48.538;12.146;2024-03-23T20:46:02;6.97;;;6.47;;
4089;SDS011;2059;48.538;12.146;2024-03-23T20:51:05;7.50;;;6.90;;
4089;SDS011;2059;48.538;12.146;2024-03-23T20:56:08;6.07;;;5.67;;
4089;SDS011;2059;48.538;12.146;2024-03-23T21:01:10;5.93;;;5.53;;
4089;SDS011;2059;48.538;12.146;2024-03-23T21:06:13;5.30;;;5.10;;
4089;SDS011;2059;48.538;12.146;2024-03-23T21:11:14;5.50;;;5.20;;
4089;SDS011;2059;48.538;12.146;2024-03-23T21:16:16;5.97;;;5.47;;
4089;SDS011;2059;48.538;12.146;2024-03-23T21:21:19;5.40;;;5.10;;
4089;SDS011;2059;48.538;12.146;2024-03-23T21:26:21;5.70;;;5.30;;
4089;SDS011;2059;48.538;12.146;2024-03-23T21:31:23;3.60;;;3.30;;
4089;SDS011;2059;48.538;12.146;2024-03-23T21:36:26;3.10;;;2.90;;
4089;SDS011;2059;48.538;12.146;2024-03-23T21:41:28;4.47;;;3.50;;
4089;SDS011;2059;48.538;12.146;2024-03-23T21:46:32;5.20;;;4.70;;
4089;SDS011;2059;48.538;12.146;2024-03-23T21:51:35;4.63;;;4.43;;
4089;SDS011;2059;48.538;12.146;2024-03-23T21:56:37;5.13;;;4.93;;
4089;SDS011;2059;48.538;12.146;2024-03-23T22:01:48;5.20;;;4.90;;
4089;SDS011;2059;48.538;12.146;2024-03-23T22:12:48;5.90;;;5.40;;
4089;SDS011;2059;48.538;12.146;2024-03-23T22:17:53;5.73;;;5.33;;
4089;SDS011;2059;48.538;12.146;2024-03-23T22:23:03;6.93;;;6.40;;
4089;SDS011;2059;48.538;12.146;2024-03-23T22:28:08;6.23;;;5.63;;
4089;SDS011;2059;48.538;12.146;2024-03-23T22:33:09;5.77;;;5.37;;
4089;SDS011;2059;48.538;12.146;2024-03-23T22:38:11;5.93;;;5.43;;
4089;SDS011;2059;48.538;12.146;2024-03-23T22:43:14;6.20;;;5.80;;
4089;SDS011;2059;48.538;12.146;2024-03-23T22:48:16;5.63;;;5.33;;
4089;SDS011;2059;48.538;12.146;2024-03-23T22:53:18;5.87;;;5.50;;
4089;SDS011;2059;48.538;12.146;2024-03-23T22:58:21;5.20;;;5.00;;
4089;SDS011;2059;48.538;12.146;2024-03-23T23:03:23;6.23;;;5.73;;
4089;SDS011;2059;48.538;12.146;2024-03-23T23:08:25;5.70;;;5.30;;
4089;SDS011;2059;48.538;12.146;2024-03-23T23:13:28;5.20;;;4.80;;
4089;SDS011;2059;48.538;12.146;2024-03-23T23:18:30;6.10;;;5.70;;
4089;SDS011;2059;48.538;12.146;2024-03-23T23:29:47;5.40;;;5.10;;
4089;SDS011;2059;48.538;12.146;2024-03-23T23:34:49;5.70;;;5.20;;
4089;SDS011;2059;48.538;12.146;2024-03-23T23:39:51;5.40;;;5.10;;
4089;SDS011;2059;48.538;12.146;2024-03-23T23:44:54;5.20;;;4.90;;
4089;SDS011;2059;48.538;12.146;2024-03-23T23:49:56;5.17;;;4.87;;
4089;SDS011;2059;48.538;12.146;2024-03-23T23:54:57;5.17;;;4.97;;
